Airfield :
LOGIN :

Register | Disclaimer

   EN    FR    IT 

 










Legend :    VFR   Marginal VFR   IFR   Intensive IFR   Very Intensive IFR
Visi :
Ceiling :
>= 8 km
>= 3000ft
5 to 8 km
1000 to 3000 ft
1500m to 5 km
500 to 1000 ft
800 to 1500m
200 to 500 ft
< 800m
< 200 ft
Symbols :   Thunderstorms  Fog  Heavy snow  Heavy precipitations  Wind > 20 kt
SIGMETs :     Misc.  Thunderstorms  Icing  Turbulence  Mountain Waves  Volcanic Ashes







- Airport Elevation : 659 ft
- IATA code : LYN
- Download approach charts


LFLY - Lyon Bron

CURRENT METAR :
  • 180630Z AUTO 17003KT 1500 1400 R34/1800D +SN BR OVC005 00/00 Q1025 TEMPO 0500 SN

EXPIRED METARs :
  • 180600Z AUTO 17003KT 1700 +SN BR BKN004 BKN009 OVC014 00/00 Q1025 TEMPO 0500 SN
  • 180530Z AUTO 15003KT 2600 SN BR FEW004 OVC016 00/00 Q1026 TEMPO 0500 SN OVC003
  • 180500Z AUTO 14003KT 2400 -SN BR FEW003 OVC013 00/00 Q1026 TEMPO 0500 SN OVC003
  • 180430Z AUTO 14003KT 2100 SN BR BKN012 OVC023 00/00 Q1027 TEMPO 0500 SN OVC003
  • 180400Z AUTO 13004KT 3900 -SN BR BKN028 OVC033 00/00 Q1027 TEMPO 0500 SN OVC003

TAF TAF LFLY
Valid from the 18 at 06:00 until the 19 at 06:00 UTC


180500Z 1806/1906 17009KT 2500 -SN OVC012
TEMPO 1806/1810 0500 SN OVC003
BECMG 1810/1812 4000 -RA
BECMG 1812/1815 35012KT 9999 NSW
ATIS : +33 4 72 15 87 96
No reported NOTAMs for that airfield.
1 SIGMET reported for the Marseille FIR (LFMM) :
 
Severe icing
LFMM SIGMET 1 VALID 180340/180700 LFPW
LFMM MARSEILLE FIR/UIR SEV ICE FCST WI N4630 E00430 - N4630 E00700 - N4445 E00600 - N4445 E00315 - N4630 E00430 FL040/100 MOV E 10KT NC=



MET'MAP, your aeronautical weather chart ! - Copyright ORBIFLY December 2007 - Disclaimer

ORBIFLY MET'MAP TEAM :

Programming & Development : Alexandra Zaïnal
Concept & Development : Baudouin d'Aumeries
Co-Development & Prog : Marc-Olivier Méhu
Technical & hardware support : Manuel Goepfert

Contact : metmap@orbifly.com




SOURCES & CREDITS :

   NOAA